Time;durP1;ratioP1;P1;durP2;ratioP2;P2;SDS_P1;SDS_P2;PMS_P1;PMS_P2;Temp;Humidity;BMP_temperature;BMP_pressure;BME280_temperature;BME280_humidity;BME280_pressure;Samples;Min_cycle;Max_cycle;Signal;HPM_P1;HPM_P2
2023/09/10 06:48:21;;;;;;;14.68;7.80;;;;;;;21.23;74.29;96829.72;2089965;28;20601;-61
2023/09/10 06:50:35;;;;;;;12.35;7.85;;;;;;;21.36;73.86;96834.84;2101630;27;21061;-64
2023/09/10 06:51:36;;;;;;;17.13;7.63;;;;;;;21.40;73.60;96838.91;2097677;28;20192;-62
2023/09/10 06:52:38;;;;;;;12.90;7.88;;;;;;;21.58;73.42;96833.03;2094301;28;20191;-62
2023/09/10 06:53:39;;;;;;;12.57;8.52;;;;;;;21.59;73.09;96837.34;2093220;28;20191;-61
2023/09/10 06:54:41;;;;;;;12.02;8.23;;;;;;;21.65;72.95;96834.19;2087673;28;20357;-62
2023/09/10 06:55:42;;;;;;;11.80;7.97;;;;;;;21.84;72.17;96834.25;2088803;28;20281;-61
2023/09/10 06:56:44;;;;;;;13.30;7.40;;;;;;;22.18;71.64;96831.25;2088965;28;20207;-62
2023/09/10 06:57:45;;;;;;;13.38;7.20;;;;;;;22.07;72.08;96830.50;2089130;28;20212;-62
2023/09/10 06:58:47;;;;;;;14.80;8.38;;;;;;;22.17;71.51;96834.91;2086128;28;20630;-63
2023/09/10 06:59:48;;;;;;;11.20;7.50;;;;;;;22.02;72.34;96838.91;2082332;28;20203;-62
2023/09/10 07:00:50;;;;;;;13.48;8.10;;;;;;;22.22;71.60;96839.81;2083231;28;20200;-60
2023/09/10 07:01:51;;;;;;;14.32;7.90;;;;;;;22.55;70.54;96834.28;2081591;28;20347;-62
2023/09/10 07:02:53;;;;;;;14.95;7.30;;;;;;;22.72;68.98;96830.09;2078651;28;20824;-62
2023/09/10 07:03:57;;;;;;;13.48;7.30;;;;;;;22.93;67.94;96830.78;2080927;28;20196;-62
2023/09/10 07:04:59;;;;;;;12.70;6.70;;;;;;;23.23;67.03;96833.44;2080639;28;20793;-63
2023/09/10 07:06:05;;;;;;;13.55;7.57;;;;;;;23.33;67.16;96838.75;2082333;28;20792;-63
2023/09/10 07:07:08;;;;;;;11.93;6.85;;;;;;;23.66;65.69;96840.03;2078682;28;20208;-62
2023/09/10 07:08:11;;;;;;;10.82;6.60;;;;;;;24.12;64.26;96842.81;2079993;28;20705;-61
2023/09/10 07:09:13;;;;;;;10.32;6.25;;;;;;;24.99;61.63;96843.22;2080384;28;20315;-62
2023/09/10 07:10:15;;;;;;;9.85;6.50;;;;;;;24.27;63.64;96841.31;2079444;28;20217;-62
2023/09/10 07:11:16;;;;;;;10.35;6.95;;;;;;;24.11;64.36;96844.66;2077449;28;20782;-62
2023/09/10 07:12:19;;;;;;;14.70;7.05;;;;;;;24.80;62.56;96848.69;2076238;28;20202;-62
2023/09/10 07:13:21;;;;;;;12.77;6.70;;;;;;;24.35;63.59;96845.06;2079110;28;20201;-62
2023/09/10 07:14:22;;;;;;;15.73;7.00;;;;;;;24.38;64.58;96850.09;2079234;28;20244;-62
2023/09/10 07:15:24;;;;;;;9.17;6.83;;;;;;;24.65;63.74;96849.25;2081289;28;20283;-62
2023/09/10 07:16:28;;;;;;;14.10;6.45;;;;;;;24.82;63.42;96852.91;2078090;28;20506;-63
2023/09/10 07:17:29;;;;;;;14.98;6.55;;;;;;;24.90;62.29;96838.78;2080645;28;20200;-62
2023/09/10 07:18:34;;;;;;;17.80;6.63;;;;;;;25.03;61.79;96849.09;2081549;28;20222;-62
2023/09/10 07:19:36;;;;;;;12.17;6.70;;;;;;;25.12;61.99;96848.16;2078203;28;20485;-62
2023/09/10 07:20:37;;;;;;;9.03;6.67;;;;;;;24.91;62.18;96845.78;2081011;28;20418;-62
2023/09/10 07:21:39;;;;;;;10.73;6.90;;;;;;;25.18;61.69;96850.22;2081831;28;20475;-62
2023/09/10 07:22:40;;;;;;;8.87;6.00;;;;;;;25.34;61.33;96845.97;2079455;28;20468;-62
2023/09/10 07:23:41;;;;;;;12.03;6.53;;;;;;;25.49;61.21;96847.09;2077206;28;20731;-62
2023/09/10 07:24:43;;;;;;;10.17;6.50;;;;;;;25.69;60.56;96841.53;2075831;28;20523;-63
2023/09/10 07:25:44;;;;;;;10.63;6.87;;;;;;;25.53;60.54;96851.13;2082341;28;20421;-63
2023/09/10 07:26:46;;;;;;;10.40;6.40;;;;;;;25.88;59.56;96848.50;2082206;28;20464;-62
2023/09/10 07:27:47;;;;;;;14.17;6.67;;;;;;;25.77;60.02;96849.59;2077963;28;20812;-63
2023/09/10 07:28:49;;;;;;;12.73;5.80;;;;;;;25.80;60.65;96843.94;2080654;28;20426;-63
2023/09/10 07:29:50;;;;;;;6.77;6.07;;;;;;;26.15;60.39;96847.44;2077932;28;20436;-63
2023/09/10 07:30:52;;;;;;;12.90;5.80;;;;;;;26.09;60.49;96845.41;2073820;28;20493;-62
2023/09/10 07:31:54;;;;;;;22.10;6.13;;;;;;;26.13;59.08;96849.47;2070071;28;20929;-63
2023/09/10 07:32:55;;;;;;;7.57;5.80;;;;;;;26.53;58.53;96852.41;2076446;28;20435;-63
2023/09/10 07:33:57;;;;;;;8.23;5.73;;;;;;;26.85;57.54;96850.81;2075268;28;20419;-63
2023/09/10 07:34:59;;;;;;;14.80;6.40;;;;;;;26.75;57.79;96850.16;2076030;28;20435;-63
2023/09/10 07:36:01;;;;;;;8.60;6.33;;;;;;;27.24;56.63;96854.69;2071437;28;20426;-63
2023/09/10 07:37:03;;;;;;;11.07;5.63;;;;;;;27.70;55.82;96860.34;2074000;28;20502;-63
2023/09/10 07:38:04;;;;;;;14.67;6.97;;;;;;;27.45;56.05;96854.19;2079284;28;20563;-63
2023/09/10 07:39:06;;;;;;;6.93;5.40;;;;;;;27.31;55.34;96853.00;2077250;28;20533;-63
2023/09/10 07:40:09;;;;;;;9.00;6.10;;;;;;;27.72;54.88;96855.66;2077042;28;20980;-63
2023/09/10 07:41:10;;;;;;;6.50;5.50;;;;;;;27.84;55.14;96861.47;2075098;28;20425;-63
2023/09/10 07:42:12;;;;;;;7.80;5.67;;;;;;;27.85;54.60;96858.59;2074024;28;20439;-64
2023/09/10 07:43:13;;;;;;;9.10;6.00;;;;;;;28.04;54.53;96856.56;2074404;28;20473;-64
2023/09/10 07:44:15;;;;;;;10.57;5.10;;;;;;;28.12;54.58;96861.91;2073934;28;20466;-64
2023/09/10 07:45:16;;;;;;;8.33;5.73;;;;;;;28.38;54.71;96857.25;2081977;28;20933;-64
2023/09/10 07:46:18;;;;;;;8.93;5.27;;;;;;;28.41;53.40;96859.59;2079216;28;20551;-64
2023/09/10 07:47:20;;;;;;;6.93;5.00;;;;;;;27.98;53.72;96857.22;2078450;28;20516;-63
2023/09/10 07:48:22;;;;;;;8.30;6.53;;;;;;;28.10;53.79;96855.03;2079375;28;20462;-64
2023/09/10 07:49:23;;;;;;;10.07;5.60;;;;;;;28.17;54.40;96861.38;2077725;28;20463;-63
2023/09/10 07:50:27;;;;;;;8.23;5.73;;;;;;;28.49;53.22;96865.75;2078822;28;20977;-64
2023/09/10 07:51:29;;;;;;;10.00;5.90;;;;;;;28.58;53.06;96861.19;2075362;28;20433;-64
2023/09/10 07:52:31;;;;;;;7.70;6.20;;;;;;;28.16;53.50;96862.38;2073748;28;20460;-63
2023/09/10 07:53:32;;;;;;;8.43;5.30;;;;;;;28.13;54.39;96862.75;2083806;28;20425;-64
2023/09/10 07:54:36;;;;;;;7.10;5.13;;;;;;;28.32;54.05;96862.31;2077651;28;20997;-64
2023/09/10 07:55:38;;;;;;;8.50;5.73;;;;;;;28.69;53.13;96869.88;2081830;28;20550;-64
2023/09/10 07:56:39;;;;;;;9.70;5.60;;;;;;;29.09;52.91;96867.91;2079837;28;20764;-64
2023/09/10 07:57:41;;;;;;;11.33;5.60;;;;;;;28.79;53.48;96870.47;2076838;28;20817;-64
2023/09/10 07:58:42;;;;;;;7.70;5.80;;;;;;;28.85;53.92;96867.09;2077669;28;20435;-64
2023/09/10 07:59:44;;;;;;;8.70;6.20;;;;;;;29.60;51.22;96865.47;2078626;28;20522;-63
2023/09/10 08:00:47;;;;;;;8.50;6.17;;;;;;;30.01;51.05;96868.75;2082361;28;20430;-64
2023/09/10 08:01:49;;;;;;;12.63;6.83;;;;;;;29.58;51.82;96869.34;2076016;28;20918;-63
2023/09/10 08:02:51;;;;;;;10.23;6.00;;;;;;;30.20;50.58;96870.03;2068288;28;20478;-64
2023/09/10 08:03:53;;;;;;;9.63;6.20;;;;;;;29.96;51.36;96866.63;2063116;28;20519;-64
2023/09/10 08:04:54;;;;;;;11.60;6.30;;;;;;;29.06;52.83;96868.25;2068390;28;20431;-64
2023/09/10 08:05:56;;;;;;;9.73;6.03;;;;;;;29.14;53.18;96865.50;2068427;28;20466;-64
2023/09/10 08:07:00;;;;;;;10.20;6.50;;;;;;;29.20;53.22;96864.78;2068474;28;20435;-64
2023/09/10 08:08:05;;;;;;;8.13;5.87;;;;;;;28.67;53.98;96868.19;2068552;28;20487;-64
2023/09/10 08:09:07;;;;;;;6.63;5.83;;;;;;;29.20;53.32;96862.09;2072957;28;20996;-64
2023/09/10 08:10:09;;;;;;;6.33;5.50;;;;;;;29.58;52.71;96859.41;2074950;28;20424;-64
2023/09/10 08:11:10;;;;;;;7.30;6.30;;;;;;;29.24;52.81;96866.13;2074814;28;20458;-64
2023/09/10 08:12:12;;;;;;;8.03;6.10;;;;;;;29.32;53.39;96868.75;2077137;28;20433;-64
2023/09/10 08:13:13;;;;;;;10.20;6.70;;;;;;;29.28;53.55;96864.75;2077123;28;21218;-64
2023/09/10 08:14:15;;;;;;;8.13;5.40;;;;;;;29.17;52.54;96865.97;2076523;28;20458;-64
2023/09/10 08:15:16;;;;;;;7.83;6.30;;;;;;;29.44;52.76;96858.38;2076646;28;20434;-64
2023/09/10 08:16:18;;;;;;;9.13;6.37;;;;;;;29.44;53.10;96854.84;2076283;28;20767;-64
2023/09/10 08:17:19;;;;;;;12.37;7.43;;;;;;;29.79;52.58;96869.47;2075471;28;20435;-64
2023/09/10 08:18:21;;;;;;;8.70;6.23;;;;;;;30.11;52.09;96864.75;2074322;28;20639;-64
2023/09/10 08:19:22;;;;;;;9.90;6.00;;;;;;;29.61;52.95;96867.13;2073444;28;21111;-64
2023/09/10 08:20:24;;;;;;;11.17;6.43;;;;;;;29.77;52.78;96870.66;2073780;28;20509;-64
2023/09/10 08:21:26;;;;;;;9.40;6.37;;;;;;;29.75;52.24;96860.09;2074076;28;20892;-64
2023/09/10 08:22:28;;;;;;;8.73;5.53;;;;;;;29.69;51.99;96858.13;2074009;28;21003;-63
2023/09/10 08:23:29;;;;;;;9.37;6.13;;;;;;;29.69;52.36;96858.13;2071155;28;20961;-64
2023/09/10 08:24:31;;;;;;;6.80;5.37;;;;;;;29.33;52.91;96866.88;2075218;28;20447;-63
2023/09/10 08:25:33;;;;;;;12.63;6.40;;;;;;;29.42;53.39;96856.88;2075111;28;20513;-66
2023/09/10 08:26:34;;;;;;;9.10;5.90;;;;;;;29.74;52.21;96860.28;2075996;28;20450;-66
2023/09/10 08:27:36;;;;;;;11.23;6.20;;;;;;;30.12;51.48;96861.03;2073369;28;20498;-62
2023/09/10 08:28:37;;;;;;;7.47;5.93;;;;;;;29.79;52.24;96863.25;2073516;28;20882;-63
2023/09/10 08:29:39;;;;;;;11.20;6.20;;;;;;;29.76;52.57;96864.47;2072337;28;20821;-63
2023/09/10 08:30:41;;;;;;;12.20;6.33;;;;;;;29.64;53.28;96858.69;2076376;28;20437;-62
2023/09/10 08:31:42;;;;;;;8.07;6.00;;;;;;;29.81;53.28;96867.44;2076065;28;20430;-62
2023/09/10 08:32:47;;;;;;;11.10;6.23;;;;;;;28.83;54.75;96861.88;2073125;28;20426;-62
2023/09/10 08:33:49;;;;;;;9.70;6.90;;;;;;;28.61;54.25;96863.50;2075105;28;20432;-62
2023/09/10 08:34:50;;;;;;;14.83;6.50;;;;;;;28.58;54.90;96861.19;2077204;28;20485;-62
2023/09/10 08:35:53;;;;;;;7.85;5.57;;;;;;;28.90;54.34;96872.75;2075216;28;20539;-62
2023/09/10 08:36:54;;;;;;;8.97;6.60;;;;;;;28.51;55.52;96871.78;2072083;28;20548;-63
2023/09/10 08:37:56;;;;;;;15.70;6.50;;;;;;;28.09;55.92;96872.16;2073689;28;20426;-62
2023/09/10 08:38:57;;;;;;;9.77;5.97;;;;;;;27.80;57.08;96866.34;2073500;28;20512;-61
2023/09/10 08:39:59;;;;;;;10.48;6.75;;;;;;;28.55;55.43;96871.44;2077824;28;20431;-61
2023/09/10 08:41:29;;;;;;;15.93;6.32;;;;;;;28.58;55.09;96869.25;2074933;28;20193;-61
2023/09/10 08:43:08;;;;;;;9.45;7.35;;;;;;;28.58;54.72;96874.63;2066359;28;20226;-61
2023/09/10 08:44:17;;;;;;;10.27;6.45;;;;;;;28.50;54.76;96869.28;2058671;28;20701;-62
2023/09/10 08:45:18;;;;;;;10.68;6.88;;;;;;;28.71;53.73;96874.06;2059196;28;20269;-62
2023/09/10 08:46:23;;;;;;;11.52;5.80;;;;;;;28.91;54.00;96868.22;2059875;28;20721;-62
2023/09/10 08:47:25;;;;;;;11.07;6.68;;;;;;;29.05;53.32;96874.66;2060779;28;20644;-62
2023/09/10 08:48:29;;;;;;;8.53;6.37;;;;;;;28.83;53.86;96871.78;2057065;28;20203;-62
2023/09/10 08:49:33;;;;;;;8.02;5.65;;;;;;;28.67;54.35;96868.19;2061886;28;21228;-62
2023/09/10 08:50:36;;;;;;;12.13;6.40;;;;;;;28.66;54.78;96866.53;2057099;28;20203;-62
2023/09/10 08:51:38;;;;;;;8.98;6.50;;;;;;;29.06;53.94;96868.25;2059814;28;20218;-62
2023/09/10 08:52:42;;;;;;;12.65;5.90;;;;;;;28.96;53.96;96863.97;2059480;28;20222;-61
2023/09/10 08:53:46;;;;;;;13.70;6.25;;;;;;;28.25;55.05;96868.56;2059854;28;20337;-62
2023/09/10 08:54:48;;;;;;;10.52;5.90;;;;;;;28.59;54.03;96870.06;2059945;28;20261;-62
2023/09/10 08:55:51;;;;;;;10.57;6.85;;;;;;;28.73;53.75;96868.50;2058850;28;20210;-62
2023/09/10 08:56:55;;;;;;;9.80;6.18;;;;;;;28.97;53.12;96868.31;2058658;28;20699;-62
2023/09/10 08:57:58;;;;;;;9.55;5.80;;;;;;;28.48;54.72;96868.59;2059124;28;20546;-62
2023/09/10 08:59:00;;;;;;;11.00;6.43;;;;;;;29.20;53.37;96863.97;2058640;28;20963;-62
2023/09/10 09:00:12;;;;;;;6.77;4.97;;;;;;;30.00;51.00;96867.91;2058163;28;20554;-63
2023/09/10 09:01:13;;;;;;;9.27;5.53;;;;;;;29.78;51.11;96869.66;2060983;28;20519;-62
2023/09/10 09:02:15;;;;;;;9.07;5.47;;;;;;;30.23;50.66;96862.44;2061248;28;20440;-62
2023/09/10 09:03:17;;;;;;;5.90;4.80;;;;;;;30.12;49.59;96862.91;2060470;28;21019;-62
2023/09/10 09:04:20;;;;;;;7.90;5.70;;;;;;;29.85;50.89;96867.88;2059144;28;20491;-62
2023/09/10 09:05:23;;;;;;;6.73;5.20;;;;;;;30.80;50.01;96856.47;2058155;28;20490;-63
2023/09/10 09:06:29;;;;;;;7.40;6.10;;;;;;;30.51;48.82;96863.59;2056910;28;20987;-62
2023/09/10 09:07:36;;;;;;;8.60;5.83;;;;;;;30.48;49.76;96864.81;2060508;28;20435;-63
2023/09/10 09:08:40;;;;;;;7.53;5.50;;;;;;;30.18;48.89;96859.44;2056867;28;20459;-62
2023/09/10 09:09:48;;;;;;;12.40;5.67;;;;;;;30.49;49.33;96865.63;2057626;28;21096;-62
2023/09/10 09:10:50;;;;;;;7.40;6.13;;;;;;;30.60;49.04;96862.47;2058491;28;20451;-62
2023/09/10 09:11:54;;;;;;;11.13;5.40;;;;;;;30.59;49.07;96861.63;2059009;28;20481;-62
2023/09/10 09:12:58;;;;;;;9.37;5.60;;;;;;;31.36;47.24;96864.69;2054981;28;20441;-62
2023/09/10 09:14:00;;;;;;;9.00;5.30;;;;;;;30.98;47.69;96864.09;2055178;28;20453;-62
2023/09/10 09:15:03;;;;;;;7.30;5.30;;;;;;;31.26;46.77;96859.63;2060628;28;20440;-62
2023/09/10 09:16:05;;;;;;;7.87;4.57;;;;;;;30.33;48.22;96862.13;2059858;28;20429;-62
2023/09/10 09:17:07;;;;;;;9.63;5.23;;;;;;;30.32;48.64;96859.63;2059671;28;20447;-63
2023/09/10 09:18:13;;;;;;;8.40;5.30;;;;;;;30.76;48.10;96864.09;2060159;28;20427;-62
2023/09/10 09:19:16;;;;;;;10.00;5.47;;;;;;;31.41;47.38;96866.78;2067863;28;20482;-62
2023/09/10 09:20:19;;;;;;;7.13;5.90;;;;;;;32.12;46.73;96860.41;2073395;28;20759;-62
2023/09/10 09:21:24;;;;;;;6.50;4.43;;;;;;;32.32;45.52;96868.63;2071978;28;20971;-62
2023/09/10 09:22:29;;;;;;;12.30;4.90;;;;;;;32.72;45.96;96867.94;2070616;28;20510;-62
2023/09/10 09:23:35;;;;;;;7.27;5.27;;;;;;;32.67;45.21;96860.47;2073433;28;20502;-62
2023/09/10 09:24:37;;;;;;;8.27;5.20;;;;;;;30.99;45.99;96861.19;2073430;28;20473;-63
2023/09/10 09:25:39;;;;;;;8.47;4.97;;;;;;;30.73;48.25;96861.78;2074085;28;20481;-62
2023/09/10 09:26:41;;;;;;;6.20;4.70;;;;;;;31.97;47.04;96862.41;2074043;28;20960;-63
2023/09/10 09:27:43;;;;;;;9.10;5.10;;;;;;;31.87;45.15;96863.63;2074290;28;20475;-63
2023/09/10 09:28:45;;;;;;;10.13;5.57;;;;;;;31.96;45.78;96861.59;2069651;28;20428;-62
2023/09/10 09:29:47;;;;;;;5.97;4.67;;;;;;;32.51;45.11;96863.53;2070454;28;20460;-62
2023/09/10 09:30:49;;;;;;;7.50;4.83;;;;;;;32.64;44.83;96868.13;2070813;28;20427;-62
2023/09/10 09:31:50;;;;;;;6.60;5.30;;;;;;;33.25;43.88;96861.81;2074863;28;21004;-62
2023/09/10 09:32:52;;;;;;;7.63;4.57;;;;;;;32.78;43.22;96866.34;2074576;28;20433;-62
2023/09/10 09:33:55;;;;;;;10.37;4.50;;;;;;;32.78;43.73;96860.94;2075438;28;20422;-62
2023/09/10 09:34:56;;;;;;;12.43;5.03;;;;;;;33.13;42.80;96861.59;2073753;28;21126;-63
2023/09/10 09:36:05;;;;;;;7.83;4.73;;;;;;;32.94;43.59;96855.13;2072811;28;20514;-62
2023/09/10 09:37:07;;;;;;;6.17;4.77;;;;;;;33.65;43.56;96850.16;2071030;28;20807;-63
2023/09/10 09:38:10;;;;;;;8.30;5.07;;;;;;;33.30;43.86;96853.94;2071188;28;20431;-63
2023/09/10 09:39:17;;;;;;;7.23;4.43;;;;;;;32.89;44.63;96853.03;2071701;28;20458;-62
2023/09/10 09:40:21;;;;;;;5.70;4.97;;;;;;;32.29;45.27;96847.44;2069501;28;20427;-63
2023/09/10 09:41:22;;;;;;;8.80;4.73;;;;;;;32.01;46.22;96847.47;2072602;28;20442;-65
2023/09/10 09:42:24;;;;;;;6.27;5.10;;;;;;;32.19;45.76;96853.22;2075677;28;20431;-64
2023/09/10 09:43:25;;;;;;;7.20;5.23;;;;;;;32.76;44.78;96855.72;2074708;28;20430;-63
2023/09/10 09:44:27;;;;;;;7.73;4.97;;;;;;;32.94;44.55;96848.88;2073365;28;20451;-65
2023/09/10 09:45:29;;;;;;;7.10;4.63;;;;;;;32.26;44.99;96844.31;2070454;28;20427;-64
2023/09/10 09:46:34;;;;;;;7.20;4.53;;;;;;;32.89;45.28;96844.09;2071632;28;20434;-67
2023/09/10 09:47:36;;;;;;;8.30;4.90;;;;;;;33.10;44.94;96847.66;2072203;28;20864;-66
2023/09/10 09:48:38;;;;;;;7.10;4.57;;;;;;;33.09;43.37;96852.25;2072788;28;20481;-64
2023/09/10 09:49:44;;;;;;;12.87;4.10;;;;;;;32.95;43.83;96846.00;2073721;28;20452;-68
2023/09/10 09:50:47;;;;;;;10.43;5.07;;;;;;;33.01;43.85;96853.28;2075481;28;20418;-68
2023/09/10 09:51:48;;;;;;;9.20;4.30;;;;;;;33.43;44.81;96850.38;2077086;28;20489;-68
2023/09/10 09:52:55;;;;;;;5.27;4.53;;;;;;;33.80;42.83;96847.22;2076127;28;20487;-64
2023/09/10 09:53:57;;;;;;;9.23;5.57;;;;;;;33.41;43.40;96846.22;2073590;28;20480;-69
2023/09/10 09:54:58;;;;;;;6.97;4.90;;;;;;;33.51;43.34;96841.25;2076954;28;20459;-64
2023/09/10 09:56:05;;;;;;;7.43;4.63;;;;;;;33.47;44.25;96839.97;2076707;28;20439;-65
2023/09/10 09:57:07;;;;;;;5.70;4.63;;;;;;;33.90;43.44;96833.28;2076107;28;20438;-65
2023/09/10 09:58:09;;;;;;;6.03;4.40;;;;;;;34.15;43.04;96841.53;2075998;28;20500;-65
2023/09/10 09:59:10;;;;;;;9.23;4.77;;;;;;;33.90;42.38;96834.09;2076532;28;20481;-65
2023/09/10 10:00:13;;;;;;;5.67;4.50;;;;;;;34.60;42.41;96836.16;2071564;28;20426;-65
2023/09/10 10:01:15;;;;;;;8.13;4.40;;;;;;;34.90;42.11;96837.44;2072204;28;20429;-65
2023/09/10 10:02:18;;;;;;;7.17;4.50;;;;;;;35.13;40.51;96834.97;2069459;28;20431;-65
2023/09/10 10:03:20;;;;;;;11.33;5.30;;;;;;;33.48;42.56;96828.13;2067933;28;20478;-65
2023/09/10 10:04:22;;;;;;;6.00;4.50;;;;;;;34.19;42.11;96831.91;2068544;28;21151;-65
2023/09/10 10:05:24;;;;;;;7.60;5.00;;;;;;;33.53;42.46;96837.28;2073490;28;20435;-65
2023/09/10 10:06:26;;;;;;;8.30;4.93;;;;;;;33.97;42.59;96834.91;2074695;28;20431;-65
2023/09/10 10:07:28;;;;;;;4.90;3.93;;;;;;;35.13;40.93;96837.66;2073876;28;20431;-64
2023/09/10 10:08:50;;;;;;;7.60;4.80;;;;;;;36.31;40.79;96839.69;2073718;28;20878;-64
2023/09/10 10:09:52;;;;;;;6.23;4.40;;;;;;;34.59;41.13;96828.19;2072700;28;20530;-64
2023/09/10 10:10:53;;;;;;;9.10;5.00;;;;;;;34.95;41.80;96826.78;2074797;28;20430;-64
2023/09/10 10:11:55;;;;;;;7.87;5.10;;;;;;;35.37;40.83;96835.22;2072369;28;20455;-64
2023/09/10 10:12:57;;;;;;;9.83;4.40;;;;;;;35.30;40.98;96829.81;2072437;28;20907;-64
2023/09/10 10:14:00;;;;;;;5.53;3.93;;;;;;;34.94;40.38;96823.22;2079213;28;20488;-64
2023/09/10 10:15:02;;;;;;;6.80;3.93;;;;;;;35.63;40.21;96830.59;2078989;28;20422;-64
2023/09/10 10:16:05;;;;;;;4.97;4.10;;;;;;;36.01;39.56;96828.78;2069805;28;20519;-66
2023/09/10 10:17:08;;;;;;;6.80;4.60;;;;;;;36.50;39.83;96829.66;2072201;28;20432;-64
2023/09/10 10:18:10;;;;;;;8.17;4.20;;;;;;;36.26;38.84;96825.97;2071929;28;20774;-64
2023/09/10 10:19:12;;;;;;;11.90;4.80;;;;;;;36.10;40.21;96833.69;2073517;28;20458;-64
2023/09/10 10:20:14;;;;;;;6.57;3.80;;;;;;;36.29;39.17;96829.06;2074819;28;20426;-64
2023/09/10 10:21:17;;;;;;;11.07;4.30;;;;;;;36.68;38.30;96838.81;2078177;28;20917;-64
2023/09/10 10:22:19;;;;;;;6.77;4.80;;;;;;;36.03;39.27;96829.38;2074411;28;20987;-64
2023/09/10 10:23:21;;;;;;;8.37;4.47;;;;;;;36.71;38.61;96828.31;2075064;28;20862;-64
2023/09/10 10:24:27;;;;;;;6.30;4.30;;;;;;;36.93;37.96;96823.19;2068666;28;20561;-64
2023/09/10 10:25:29;;;;;;;8.87;4.97;;;;;;;36.64;37.76;96833.00;2072148;28;20432;-64
2023/09/10 10:26:31;;;;;;;6.97;3.60;;;;;;;37.13;37.83;96826.66;2080948;28;20538;-64
2023/09/10 10:27:36;;;;;;;6.93;3.40;;;;;;;37.34;37.85;96825.31;2081846;28;20476;-64
2023/09/10 10:28:38;;;;;;;8.93;4.20;;;;;;;37.31;36.72;96829.28;2078523;28;21047;-64
2023/09/10 10:29:40;;;;;;;5.77;4.00;;;;;;;35.90;39.03;96819.50;2070945;28;20517;-64
2023/09/10 10:30:52;;;;;;;9.90;4.20;;;;;;;37.08;38.41;96824.66;2074777;28;20423;-64
2023/09/10 10:32:07;;;;;;;10.17;4.23;;;;;;;37.13;37.04;96823.94;2072455;28;21104;-64
2023/09/10 10:33:11;;;;;;;8.10;4.50;;;;;;;37.99;36.39;96821.63;2071414;28;20450;-64
2023/09/10 10:34:21;;;;;;;5.87;4.07;;;;;;;37.89;36.53;96819.50;2069602;28;20798;-64
2023/09/10 10:35:28;;;;;;;6.93;4.47;;;;;;;37.72;36.53;96818.56;2072095;28;20432;-64
2023/09/10 10:37:00;;;;;;;6.90;4.43;;;;;;;37.71;35.94;96814.16;2074195;28;20786;-64
2023/09/10 10:38:05;;;;;;;6.83;4.37;;;;;;;37.57;36.60;96816.31;2071697;28;20550;-64
2023/09/10 10:39:09;;;;;;;10.43;3.83;;;;;;;37.45;36.91;96819.03;2074778;28;20466;-65
2023/09/10 10:40:18;;;;;;;5.77;4.03;;;;;;;36.83;37.42;96817.47;2075514;28;20936;-64
2023/09/10 10:41:25;;;;;;;4.53;3.80;;;;;;;36.98;37.96;96819.78;2073233;28;20426;-64
2023/09/10 10:42:40;;;;;;;5.60;4.00;;;;;;;37.86;36.83;96811.00;2074445;28;20422;-64
2023/09/10 10:43:51;;;;;;;6.00;3.97;;;;;;;37.66;35.88;96814.06;2075381;28;20509;-64
2023/09/10 10:44:52;;;;;;;9.07;3.80;;;;;;;37.48;37.11;96821.28;2068832;28;21091;-64
2023/09/10 10:45:57;;;;;;;6.20;4.53;;;;;;;38.25;35.93;96815.84;2073702;28;20423;-64
2023/09/10 10:47:02;;;;;;;5.27;3.60;;;;;;;37.68;36.32;96817.38;2071051;28;20798;-63
2023/09/10 10:48:10;;;;;;;5.60;3.93;;;;;;;37.25;36.96;96813.91;2074387;28;20464;-63
2023/09/10 10:49:11;;;;;;;15.70;4.17;;;;;;;36.87;37.25;96813.25;2071199;28;21192;-64
2023/09/10 10:50:19;;;;;;;6.93;4.70;;;;;;;37.77;36.51;96806.94;2069477;28;20463;-65
2023/09/10 10:51:21;;;;;;;7.43;3.50;;;;;;;38.27;35.70;96813.72;2072820;28;20434;-64
2023/09/10 10:52:31;;;;;;;8.97;4.27;;;;;;;38.38;35.74;96807.44;2074524;28;20517;-64
2023/09/10 10:53:34;;;;;;;7.90;4.07;;;;;;;38.67;34.90;96807.44;2073418;28;20512;-64
2023/09/10 10:54:36;;;;;;;5.20;3.97;;;;;;;37.73;36.02;96804.69;2074312;28;20587;-64
2023/09/10 10:55:39;;;;;;;4.83;3.90;;;;;;;38.22;36.09;96807.13;2072451;28;20419;-64
2023/09/10 10:56:40;;;;;;;6.50;3.70;;;;;;;37.69;35.80;96811.69;2073943;28;20459;-64
2023/09/10 10:57:43;;;;;;;5.83;3.60;;;;;;;37.80;35.72;96799.16;2072773;28;20424;-63
2023/09/10 10:58:44;;;;;;;7.93;4.10;;;;;;;36.90;36.17;96806.50;2070812;28;20477;-63
2023/09/10 10:59:46;;;;;;;9.43;3.83;;;;;;;36.13;37.22;96797.06;2074378;28;20462;-64
2023/09/10 11:00:50;;;;;;;4.87;3.50;;;;;;;36.90;37.48;96804.63;2072091;28;20424;-63
2023/09/10 11:02:14;;;;;;;8.53;4.60;;;;;;;37.86;36.16;96798.19;2070306;28;20431;-63
2023/09/10 11:03:17;;;;;;;5.73;3.33;;;;;;;37.94;36.19;96804.34;2067218;28;20439;-63
2023/09/10 11:04:18;;;;;;;7.77;3.73;;;;;;;37.33;36.03;96799.16;2068424;28;20467;-63
2023/09/10 11:05:20;;;;;;;10.47;3.97;;;;;;;37.41;36.75;96804.25;2074227;28;20422;-63
2023/09/10 11:06:22;;;;;;;4.70;3.90;;;;;;;37.35;36.92;96813.34;2074729;28;20427;-62
2023/09/10 11:07:24;;;;;;;4.40;3.00;;;;;;;37.44;36.36;96801.03;2072969;28;20435;-63
2023/09/10 11:08:39;;;;;;;6.47;4.17;;;;;;;37.43;36.48;96804.81;2072535;28;21013;-63
2023/09/10 11:09:40;;;;;;;10.10;4.83;;;;;;;37.31;37.22;96803.97;2070937;28;20463;-63
2023/09/10 11:10:42;;;;;;;11.83;4.30;;;;;;;37.26;35.93;96807.41;2071665;28;20486;-63
2023/09/10 11:11:43;;;;;;;10.43;4.57;;;;;;;37.58;36.11;96805.16;2071221;28;20428;-63
2023/09/10 11:13:12;;;;;;;11.20;4.23;;;;;;;38.11;35.75;96805.25;2068816;28;20510;-63
2023/09/10 11:14:14;;;;;;;12.40;4.17;;;;;;;36.93;37.46;96804.16;2068875;28;20458;-64
2023/09/10 11:15:15;;;;;;;6.33;3.50;;;;;;;37.62;36.68;96793.81;2072640;28;20442;-63
2023/09/10 11:16:17;;;;;;;5.70;3.70;;;;;;;37.58;35.86;96802.44;2071994;28;20996;-63
2023/09/10 11:17:24;;;;;;;6.10;3.70;;;;;;;37.69;35.93;96794.53;2073917;28;20454;-63
2023/09/10 11:18:34;;;;;;;8.63;4.07;;;;;;;38.57;34.90;96801.81;2072464;28;20430;-63
2023/09/10 11:19:44;;;;;;;4.80;3.53;;;;;;;38.16;34.19;96801.81;2070018;28;20464;-64
2023/09/10 11:20:50;;;;;;;6.43;3.37;;;;;;;37.40;34.98;96802.59;2068944;28;20422;-63
2023/09/10 11:21:55;;;;;;;7.30;4.00;;;;;;;37.49;35.65;96800.34;2069148;28;20423;-64
2023/09/10 11:23:09;;;;;;;6.50;3.70;;;;;;;37.90;35.83;96801.25;2069498;28;20490;-63
2023/09/10 11:24:14;;;;;;;10.00;4.03;;;;;;;38.52;35.43;96806.06;2070005;28;20453;-63
2023/09/10 11:25:15;;;;;;;6.70;3.60;;;;;;;38.67;34.88;96791.88;2071653;28;20452;-63
2023/09/10 11:26:17;;;;;;;7.43;3.50;;;;;;;38.80;33.96;96801.69;2070908;28;20489;-63
2023/09/10 11:27:20;;;;;;;10.20;3.73;;;;;;;38.37;34.72;96794.88;2071742;28;20428;-63
2023/09/10 11:28:52;;;;;;;6.50;4.20;;;;;;;39.31;34.41;96795.44;2073429;28;20488;-63
2023/09/10 11:30:09;;;;;;;8.13;3.70;;;;;;;38.76;34.96;96791.53;2081953;28;20446;-63
2023/09/10 11:31:29;;;;;;;9.73;3.13;;;;;;;38.14;35.41;96793.84;2078127;28;20425;-63
2023/09/10 11:32:31;;;;;;;5.23;3.93;;;;;;;37.56;35.73;96796.44;2081560;28;20414;-63
2023/09/10 11:33:33;;;;;;;4.23;3.60;;;;;;;36.37;36.92;96792.59;2080489;28;20440;-63
2023/09/10 11:34:35;;;;;;;5.87;3.77;;;;;;;36.20;36.91;96791.53;2077341;28;20469;-63
2023/09/10 11:35:37;;;;;;;4.53;3.80;;;;;;;36.68;36.47;96801.56;2078471;28;20934;-63
2023/09/10 11:36:41;;;;;;;5.50;4.13;;;;;;;36.73;36.50;96784.56;2084104;28;20438;-63
2023/09/10 11:37:47;;;;;;;6.07;4.10;;;;;;;36.00;38.18;96787.19;2085309;28;20429;-63
2023/09/10 11:38:48;;;;;;;8.07;3.90;;;;;;;37.30;36.57;96786.81;2082222;28;20434;-64
2023/09/10 11:39:50;;;;;;;8.60;3.97;;;;;;;36.87;37.44;96785.22;2081611;28;20514;-63
2023/09/10 11:40:51;;;;;;;8.40;4.30;;;;;;;37.24;37.02;96783.16;2084413;28;20425;-63
2023/09/10 11:41:55;;;;;;;6.70;4.27;;;;;;;37.89;36.07;96789.53;2081991;28;20430;-63
2023/09/10 11:42:57;;;;;;;9.83;3.50;;;;;;;37.27;36.25;96787.28;2085479;28;20471;-63
2023/09/10 11:44:00;;;;;;;6.57;4.13;;;;;;;37.04;36.73;96782.63;2080588;28;20426;-63
2023/09/10 11:45:03;;;;;;;9.73;4.20;;;;;;;37.04;36.41;96791.66;2080052;28;20765;-63
2023/09/10 11:46:06;;;;;;;4.70;3.83;;;;;;;36.84;36.75;96778.34;2085503;28;20472;-63
2023/09/10 11:47:08;;;;;;;7.00;4.53;;;;;;;37.10;36.41;96787.16;2082896;28;20525;-63
2023/09/10 11:48:09;;;;;;;10.50;4.67;;;;;;;36.99;36.28;96783.34;2082675;28;20962;-63